createdAt,value
2023-04-03T00:00:18.848Z,61.82
2023-04-03T00:05:20.710Z,61.81
2023-04-03T00:10:22.510Z,62.08
2023-04-03T00:15:24.079Z,61.65
2023-04-03T00:20:25.724Z,61.41
2023-04-03T00:25:28.376Z,61.55
2023-04-03T00:30:30.136Z,61.17
2023-04-03T00:35:31.867Z,61.56
2023-04-03T00:40:40.051Z,61.93
2023-04-03T00:45:44.329Z,61.65
2023-04-03T00:50:48.439Z,61.25
2023-04-03T00:55:52.014Z,61.40
2023-04-03T01:00:58.976Z,61.43
2023-04-03T01:06:00.957Z,61.14
2023-04-03T01:11:02.524Z,61.39
2023-04-03T01:16:07.835Z,61.43
2023-04-03T01:21:47.928Z,61.08
2023-04-03T01:26:51.385Z,61.35
2023-04-03T01:31:58.999Z,61.32
2023-04-03T01:37:00.572Z,61.20
2023-04-03T01:42:02.158Z,61.28
2023-04-03T01:47:07.109Z,61.34
2023-04-03T01:52:08.601Z,61.56
2023-04-03T01:57:10.233Z,61.57
2023-04-03T02:02:13.454Z,61.91
2023-04-03T02:07:14.978Z,61.86
2023-04-03T02:12:16.861Z,61.55
2023-04-03T02:17:18.655Z,61.70
2023-04-03T02:22:21.211Z,61.59
2023-04-03T02:27:22.841Z,61.70
2023-04-03T02:32:24.860Z,62.02
2023-04-03T02:37:26.701Z,62.25
2023-04-03T02:42:29.076Z,62.16
2023-04-03T02:47:30.852Z,62.33
2023-04-03T02:52:33.007Z,62.54
2023-04-03T02:57:34.566Z,62.28
2023-04-03T03:02:36.480Z,62.73
2023-04-03T03:07:38.117Z,62.67
2023-04-03T03:12:39.595Z,62.69
2023-04-03T03:17:41.186Z,62.94
2023-04-03T03:22:42.877Z,63.35
2023-04-03T03:27:44.549Z,63.56
2023-04-03T03:32:46.456Z,63.72
2023-04-03T03:37:48.057Z,64.13
2023-04-03T03:42:49.846Z,64.08
2023-04-03T03:47:51.384Z,64.33
2023-04-03T03:52:53.079Z,64.78
2023-04-03T03:57:54.709Z,65.02
2023-04-03T04:02:58.728Z,64.84
2023-04-03T04:08:00.988Z,65.05
2023-04-03T04:13:02.556Z,65.61
2023-04-03T04:18:04.654Z,65.88
2023-04-03T04:23:06.304Z,66.24
2023-04-03T04:28:07.856Z,66.55
2023-04-03T04:33:09.579Z,66.36
2023-04-03T04:38:11.579Z,66.32
2023-04-03T04:43:15.893Z,66.38
2023-04-03T04:48:17.560Z,66.45
2023-04-03T04:53:19.200Z,66.26
2023-04-03T04:58:21.292Z,66.19
2023-04-03T05:03:22.803Z,66.38
2023-04-03T05:08:24.699Z,65.56
2023-04-03T05:13:26.337Z,65.60
2023-04-03T05:18:27.855Z,65.98
2023-04-03T05:23:29.342Z,65.80
2023-04-03T05:28:31.232Z,65.53
2023-04-03T05:33:32.903Z,65.49
2023-04-03T05:38:34.999Z,65.38
2023-04-03T05:43:38.811Z,65.37
2023-04-03T05:48:40.870Z,65.34
2023-04-03T05:53:44.411Z,65.25
2023-04-03T05:58:45.919Z,65.51
2023-04-03T06:03:47.494Z,65.44
2023-04-03T06:08:49.428Z,65.41
2023-04-03T06:13:50.943Z,65.46
2023-04-03T06:18:52.414Z,65.01
2023-04-03T06:23:53.935Z,64.94
2023-04-03T06:28:55.507Z,64.93
2023-04-03T06:33:57.543Z,64.72
2023-04-03T06:38:59.022Z,64.06
2023-04-03T06:44:00.590Z,63.78
2023-04-03T06:49:02.569Z,63.20
2023-04-03T06:54:06.900Z,63.37
2023-04-03T06:59:09.598Z,61.76
2023-04-03T07:04:11.412Z,61.95
2023-04-03T07:09:13.348Z,61.54
2023-04-03T07:14:14.857Z,61.08
2023-04-03T07:19:16.688Z,60.39
2023-04-03T07:24:18.169Z,59.79
2023-04-03T07:29:22.596Z,59.89
2023-04-03T07:34:24.320Z,59.35
2023-04-03T07:39:26.550Z,58.84
2023-04-03T07:44:28.522Z,57.26
2023-04-03T07:49:30.075Z,56.56
2023-04-03T07:54:31.850Z,54.99
2023-04-03T07:59:33.742Z,55.16
2023-04-03T08:04:36.179Z,54.38
2023-04-03T08:09:38.057Z,54.51
2023-04-03T08:14:39.601Z,53.94
2023-04-03T08:19:41.699Z,53.41
2023-04-03T08:24:52.541Z,52.48
2023-04-03T08:30:00.983Z,52.56
2023-04-03T08:35:03.348Z,51.99
2023-04-03T08:40:09.059Z,50.30
2023-04-03T08:45:16.942Z,49.76
2023-04-03T08:50:23.040Z,50.31
2023-04-03T08:55:36.323Z,48.75
2023-04-03T09:00:52.925Z,47.65
2023-04-03T09:05:57.093Z,46.55
2023-04-03T09:11:10.593Z,46.83
2023-04-03T09:16:26.722Z,46.78
2023-04-03T09:21:48.946Z,46.46
2023-04-03T09:27:05.230Z,45.15
2023-04-03T09:32:35.330Z,44.40
2023-04-03T09:37:41.684Z,45.68
2023-04-03T09:42:46.294Z,44.19
2023-04-03T09:48:06.771Z,44.29
2023-04-03T09:53:28.609Z,44.00
2023-04-03T09:58:49.102Z,44.03
2023-04-03T10:04:07.295Z,44.01
2023-04-03T10:09:35.604Z,43.49
2023-04-03T10:14:55.316Z,42.76
2023-04-03T10:20:02.649Z,44.24
2023-04-03T10:25:43.011Z,44.19
2023-04-03T10:30:53.509Z,42.78
2023-04-03T10:36:19.081Z,43.35
2023-04-03T10:42:16.655Z,43.05
2023-04-03T10:47:25.823Z,44.08
2023-04-03T10:52:47.693Z,43.11
2023-04-03T10:57:50.278Z,42.99
2023-04-03T11:03:04.136Z,42.75
2023-04-03T11:08:13.408Z,43.08
2023-04-03T11:13:18.373Z,43.22
2023-04-03T11:18:25.327Z,42.60
2023-04-03T11:23:32.735Z,42.75
2023-04-03T11:28:41.816Z,42.00
2023-04-03T11:33:52.616Z,42.46
2023-04-03T11:38:58.855Z,41.13
2023-04-03T11:44:27.897Z,41.37
2023-04-03T11:49:54.764Z,40.95
2023-04-03T11:54:56.520Z,41.00
2023-04-03T11:59:58.366Z,41.22
2023-04-03T12:05:37.163Z,40.92
2023-04-03T12:10:39.037Z,40.96
2023-04-03T12:15:40.645Z,39.98
2023-04-03T12:20:59.638Z,40.13
2023-04-03T12:26:07.548Z,39.90
2023-04-03T12:31:11.874Z,39.87
2023-04-03T12:36:27.292Z,39.53
2023-04-03T12:41:44.395Z,40.70
2023-04-03T12:46:50.983Z,40.42
2023-04-03T12:51:53.207Z,39.68
2023-04-03T12:57:30.249Z,39.56
2023-04-03T13:02:38.451Z,38.88
2023-04-03T13:07:41.956Z,38.87
2023-04-03T13:12:51.785Z,39.33
2023-04-03T13:17:55.079Z,40.01
2023-04-03T13:23:18.542Z,39.19
2023-04-03T13:28:25.746Z,38.83
2023-04-03T13:33:32.418Z,38.88
2023-04-03T13:38:35.143Z,37.43
2023-04-03T13:43:38.161Z,38.47
2023-04-03T13:48:52.265Z,38.74
2023-04-03T13:53:58.557Z,38.58
2023-04-03T13:59:20.926Z,37.56
2023-04-03T14:04:27.396Z,38.24
2023-04-03T14:09:29.259Z,38.08
2023-04-03T14:14:36.536Z,37.85
2023-04-03T14:19:38.037Z,37.61
2023-04-03T14:24:40.306Z,37.78
2023-04-03T14:29:42.357Z,38.20
2023-04-03T14:34:44.549Z,38.42
2023-04-03T14:39:47.077Z,38.88
2023-04-03T14:44:49.281Z,39.49
2023-04-03T14:49:50.945Z,39.70
2023-04-03T14:54:54.402Z,39.52
2023-04-03T14:59:56.079Z,39.39
2023-04-03T15:04:58.671Z,39.61
2023-04-03T15:10:14.698Z,40.05
2023-04-03T15:15:18.496Z,40.48
2023-04-03T15:20:24.165Z,40.78
2023-04-03T15:25:26.971Z,41.16
2023-04-03T15:30:28.508Z,40.70
2023-04-03T15:35:30.094Z,41.34
2023-04-03T15:40:31.693Z,41.48
2023-04-03T15:45:36.031Z,41.92
2023-04-03T15:50:37.888Z,42.28
2023-04-03T15:55:40.425Z,42.29
2023-04-03T16:00:42.781Z,41.66
2023-04-03T16:05:44.765Z,42.31
2023-04-03T16:10:47.234Z,41.20
2023-04-03T16:15:49.877Z,41.10
2023-04-03T16:20:51.744Z,41.60
2023-04-03T16:25:53.508Z,42.26
2023-04-03T16:30:55.062Z,42.98
2023-04-03T16:35:56.598Z,43.24
2023-04-03T16:41:00.377Z,43.62
2023-04-03T16:46:03.473Z,44.18
2023-04-03T16:51:05.243Z,43.92
2023-04-03T16:56:06.786Z,44.30
2023-04-03T17:01:14.545Z,45.18
2023-04-03T17:06:24.276Z,45.35
2023-04-03T17:11:26.755Z,45.28
2023-04-03T17:16:29.977Z,45.35
2023-04-03T17:21:33.245Z,45.32
2023-04-03T17:26:37.509Z,45.07
2023-04-03T17:31:39.147Z,45.39
2023-04-03T17:36:41.757Z,45.38
2023-04-03T17:41:45.986Z,45.65
2023-04-03T17:46:47.645Z,45.98
2023-04-03T17:51:49.335Z,46.66
2023-04-03T17:56:50.976Z,46.80
2023-04-03T18:01:53.402Z,47.17
2023-04-03T18:06:56.087Z,47.01
2023-04-03T18:11:58.200Z,46.91
2023-04-03T18:16:59.744Z,46.84
2023-04-03T18:22:05.333Z,46.90
2023-04-03T18:27:12.989Z,46.84
2023-04-03T18:32:17.930Z,46.61
2023-04-03T18:37:20.979Z,46.47
2023-04-03T18:42:26.007Z,46.72
2023-04-03T18:47:29.027Z,46.94
2023-04-03T18:52:30.636Z,46.89
2023-04-03T18:57:32.218Z,47.11
2023-04-03T19:02:34.222Z,47.70
2023-04-03T19:07:35.948Z,48.45
2023-04-03T19:12:37.472Z,48.50
2023-04-03T19:17:39.348Z,48.78
2023-04-03T19:22:41.817Z,48.82
2023-04-03T19:27:43.346Z,48.95
2023-04-03T19:32:44.907Z,48.61
2023-04-03T19:37:50.823Z,48.52
2023-04-03T19:42:52.872Z,48.99
2023-04-03T19:47:54.731Z,49.29
2023-04-03T19:52:56.345Z,49.66
2023-04-03T19:57:59.733Z,50.06
2023-04-03T20:03:01.775Z,50.61
2023-04-03T20:08:03.861Z,51.57
2023-04-03T20:13:08.624Z,52.17
2023-04-03T20:18:18.829Z,53.40
2023-04-03T20:23:21.056Z,53.85
2023-04-03T20:28:23.121Z,54.24
2023-04-03T20:33:28.146Z,54.59
2023-04-03T20:38:29.987Z,55.00
2023-04-03T20:43:31.529Z,55.67
2023-04-03T20:48:33.016Z,56.32
2023-04-03T20:53:34.764Z,56.73
2023-04-03T20:58:39.002Z,56.45
2023-04-03T21:03:40.916Z,56.54
2023-04-03T21:09:20.837Z,56.93
2023-04-03T21:15:00.170Z,57.26
2023-04-03T21:20:01.718Z,57.22
2023-04-03T21:25:03.492Z,57.66
2023-04-03T21:30:06.374Z,58.06
2023-04-03T21:35:09.524Z,57.87
2023-04-03T21:40:11.601Z,58.07
2023-04-03T21:45:16.204Z,58.47
2023-04-03T21:50:19.379Z,58.54
2023-04-03T21:55:20.890Z,58.55
2023-04-03T22:00:28.868Z,58.49
2023-04-03T22:05:32.159Z,59.04
2023-04-03T22:10:34.266Z,59.16
2023-04-03T22:15:42.875Z,59.72
2023-04-03T22:20:44.718Z,59.30
2023-04-03T22:26:03.671Z,59.51
2023-04-03T22:31:09.839Z,59.89
2023-04-03T22:36:13.554Z,60.30
2023-04-03T22:41:15.105Z,59.98
2023-04-03T22:46:16.693Z,60.06
2023-04-03T22:51:18.237Z,60.23
2023-04-03T22:56:19.923Z,60.55
2023-04-03T23:01:24.147Z,61.09
2023-04-03T23:06:26.755Z,61.37
2023-04-03T23:11:28.245Z,60.92
2023-04-03T23:16:29.825Z,60.75
2023-04-03T23:21:31.525Z,61.12
2023-04-03T23:26:32.994Z,61.41
2023-04-03T23:31:34.506Z,61.75
2023-04-03T23:36:36.358Z,62.22
2023-04-03T23:41:37.848Z,62.00
2023-04-03T23:46:39.583Z,61.80
2023-04-03T23:51:41.328Z,62.37
2023-04-03T23:56:42.797Z,62.19
